sensor_id;sensor_type;location;lat;lon;timestamp;temperature;humidity
7046;DHT22;3564;53.326;10.356;2023-07-13T00:01:26;22.00;99.90
7046;DHT22;3564;53.326;10.356;2023-07-13T00:03:52;22.00;99.90
7046;DHT22;3564;53.326;10.356;2023-07-13T00:06:17;22.00;99.90
7046;DHT22;3564;53.326;10.356;2023-07-13T00:08:45;22.00;99.90
7046;DHT22;3564;53.326;10.356;2023-07-13T00:11:11;21.90;99.90
7046;DHT22;3564;53.326;10.356;2023-07-13T00:13:36;21.90;99.90
7046;DHT22;3564;53.326;10.356;2023-07-13T00:16:04;21.90;99.90
7046;DHT22;3564;53.326;10.356;2023-07-13T00:18:30;21.90;99.90
7046;DHT22;3564;53.326;10.356;2023-07-13T00:20:56;21.80;99.90
7046;DHT22;3564;53.326;10.356;2023-07-13T00:23:31;21.80;99.90
7046;DHT22;3564;53.326;10.356;2023-07-13T00:26:00;21.80;99.90
7046;DHT22;3564;53.326;10.356;2023-07-13T00:28:26;21.70;99.90
7046;DHT22;3564;53.326;10.356;2023-07-13T00:30:51;21.70;99.90
7046;DHT22;3564;53.326;10.356;2023-07-13T00:33:17;21.70;99.90
7046;DHT22;3564;53.326;10.356;2023-07-13T00:35:42;21.60;99.90
7046;DHT22;3564;53.326;10.356;2023-07-13T00:38:09;21.60;99.90
7046;DHT22;3564;53.326;10.356;2023-07-13T00:40:35;21.60;99.90
7046;DHT22;3564;53.326;10.356;2023-07-13T00:43:00;21.60;99.90
7046;DHT22;3564;53.326;10.356;2023-07-13T00:47:52;21.50;99.90
7046;DHT22;3564;53.326;10.356;2023-07-13T00:50:20;21.50;99.90
7046;DHT22;3564;53.326;10.356;2023-07-13T00:52:49;21.50;99.90
7046;DHT22;3564;53.326;10.356;2023-07-13T00:55:16;21.40;99.90
7046;DHT22;3564;53.326;10.356;2023-07-13T00:57:43;21.40;99.90
7046;DHT22;3564;53.326;10.356;2023-07-13T01:00:09;21.40;99.90
7046;DHT22;3564;53.326;10.356;2023-07-13T01:02:38;21.40;99.90
7046;DHT22;3564;53.326;10.356;2023-07-13T01:05:10;21.40;99.90
7046;DHT22;3564;53.326;10.356;2023-07-13T01:07:36;21.40;99.90
7046;DHT22;3564;53.326;10.356;2023-07-13T01:10:02;21.30;99.90
7046;DHT22;3564;53.326;10.356;2023-07-13T01:12:46;21.30;99.90
7046;DHT22;3564;53.326;10.356;2023-07-13T01:15:42;21.30;99.90
7046;DHT22;3564;53.326;10.356;2023-07-13T01:18:20;21.30;99.90
7046;DHT22;3564;53.326;10.356;2023-07-13T01:21:00;21.30;99.90
7046;DHT22;3564;53.326;10.356;2023-07-13T01:23:28;21.20;99.90
7046;DHT22;3564;53.326;10.356;2023-07-13T01:25:54;21.20;99.90
7046;DHT22;3564;53.326;10.356;2023-07-13T01:28:22;21.10;99.90
7046;DHT22;3564;53.326;10.356;2023-07-13T01:30:48;21.10;99.90
7046;DHT22;3564;53.326;10.356;2023-07-13T01:33:17;21.10;99.90
7046;DHT22;3564;53.326;10.356;2023-07-13T01:35:44;21.10;99.90
7046;DHT22;3564;53.326;10.356;2023-07-13T01:38:10;21.10;99.90
7046;DHT22;3564;53.326;10.356;2023-07-13T01:40:37;21.00;99.90
7046;DHT22;3564;53.326;10.356;2023-07-13T01:43:09;21.00;99.90
7046;DHT22;3564;53.326;10.356;2023-07-13T01:45:35;20.90;99.90
7046;DHT22;3564;53.326;10.356;2023-07-13T01:48:01;20.90;99.90
7046;DHT22;3564;53.326;10.356;2023-07-13T01:50:26;20.90;99.90
7046;DHT22;3564;53.326;10.356;2023-07-13T01:52:52;20.90;99.90
7046;DHT22;3564;53.326;10.356;2023-07-13T01:55:18;20.90;99.90
7046;DHT22;3564;53.326;10.356;2023-07-13T01:57:44;20.90;99.90
7046;DHT22;3564;53.326;10.356;2023-07-13T02:00:11;20.80;99.90
7046;DHT22;3564;53.326;10.356;2023-07-13T02:02:36;20.80;99.90
7046;DHT22;3564;53.326;10.356;2023-07-13T02:05:02;20.70;99.90
7046;DHT22;3564;53.326;10.356;2023-07-13T02:07:28;20.70;99.90
7046;DHT22;3564;53.326;10.356;2023-07-13T02:09:53;20.60;99.90
7046;DHT22;3564;53.326;10.356;2023-07-13T02:12:19;20.50;99.90
7046;DHT22;3564;53.326;10.356;2023-07-13T02:14:44;20.50;99.90
7046;DHT22;3564;53.326;10.356;2023-07-13T02:17:10;20.50;99.90
7046;DHT22;3564;53.326;10.356;2023-07-13T02:19:36;20.50;99.90
7046;DHT22;3564;53.326;10.356;2023-07-13T02:22:02;20.50;99.90
7046;DHT22;3564;53.326;10.356;2023-07-13T02:24:28;20.40;99.90
7046;DHT22;3564;53.326;10.356;2023-07-13T02:26:53;20.40;99.90
7046;DHT22;3564;53.326;10.356;2023-07-13T02:29:19;20.30;99.90
7046;DHT22;3564;53.326;10.356;2023-07-13T02:31:45;20.20;99.90
7046;DHT22;3564;53.326;10.356;2023-07-13T02:34:10;20.30;99.90
7046;DHT22;3564;53.326;10.356;2023-07-13T02:36:36;20.30;99.90
7046;DHT22;3564;53.326;10.356;2023-07-13T02:39:04;20.30;99.90
7046;DHT22;3564;53.326;10.356;2023-07-13T02:41:30;20.30;99.90
7046;DHT22;3564;53.326;10.356;2023-07-13T02:43:58;20.40;99.90
7046;DHT22;3564;53.326;10.356;2023-07-13T02:46:33;20.40;99.90
7046;DHT22;3564;53.326;10.356;2023-07-13T02:48:59;20.40;99.90
7046;DHT22;3564;53.326;10.356;2023-07-13T02:51:26;20.40;99.90
7046;DHT22;3564;53.326;10.356;2023-07-13T02:53:51;20.30;99.90
7046;DHT22;3564;53.326;10.356;2023-07-13T02:56:25;20.30;99.90
7046;DHT22;3564;53.326;10.356;2023-07-13T02:58:51;20.30;99.90
7046;DHT22;3564;53.326;10.356;2023-07-13T03:01:16;20.20;99.90
7046;DHT22;3564;53.326;10.356;2023-07-13T03:03:48;20.20;99.90
7046;DHT22;3564;53.326;10.356;2023-07-13T03:06:15;20.10;99.90
7046;DHT22;3564;53.326;10.356;2023-07-13T03:08:42;20.10;99.90
7046;DHT22;3564;53.326;10.356;2023-07-13T03:11:11;20.10;99.90
7046;DHT22;3564;53.326;10.356;2023-07-13T03:13:38;20.10;99.90
7046;DHT22;3564;53.326;10.356;2023-07-13T03:16:04;20.00;99.90
7046;DHT22;3564;53.326;10.356;2023-07-13T03:18:31;20.00;99.90
7046;DHT22;3564;53.326;10.356;2023-07-13T03:20:57;20.00;99.90
7046;DHT22;3564;53.326;10.356;2023-07-13T03:23:23;19.90;99.90
7046;DHT22;3564;53.326;10.356;2023-07-13T03:25:50;19.90;99.90
7046;DHT22;3564;53.326;10.356;2023-07-13T03:28:16;19.80;99.90
7046;DHT22;3564;53.326;10.356;2023-07-13T03:30:41;19.80;99.90
7046;DHT22;3564;53.326;10.356;2023-07-13T03:33:07;19.80;99.90
7046;DHT22;3564;53.326;10.356;2023-07-13T03:35:34;19.80;99.90
7046;DHT22;3564;53.326;10.356;2023-07-13T03:38:00;19.80;99.90
7046;DHT22;3564;53.326;10.356;2023-07-13T03:40:27;19.70;99.90
7046;DHT22;3564;53.326;10.356;2023-07-13T03:42:53;19.70;99.90
7046;DHT22;3564;53.326;10.356;2023-07-13T03:45:19;19.70;99.90
7046;DHT22;3564;53.326;10.356;2023-07-13T03:47:44;19.70;99.90
7046;DHT22;3564;53.326;10.356;2023-07-13T03:50:10;19.70;99.90
7046;DHT22;3564;53.326;10.356;2023-07-13T03:52:36;19.70;99.90
7046;DHT22;3564;53.326;10.356;2023-07-13T03:55:02;19.70;99.90
7046;DHT22;3564;53.326;10.356;2023-07-13T03:57:28;19.60;99.90
7046;DHT22;3564;53.326;10.356;2023-07-13T03:59:54;19.60;99.90
7046;DHT22;3564;53.326;10.356;2023-07-13T04:02:20;19.60;99.90
7046;DHT22;3564;53.326;10.356;2023-07-13T04:04:46;19.60;99.90
7046;DHT22;3564;53.326;10.356;2023-07-13T04:07:12;19.60;99.90
7046;DHT22;3564;53.326;10.356;2023-07-13T04:09:37;19.60;99.90
7046;DHT22;3564;53.326;10.356;2023-07-13T04:12:04;19.60;99.90
7046;DHT22;3564;53.326;10.356;2023-07-13T04:14:30;19.60;99.90
7046;DHT22;3564;53.326;10.356;2023-07-13T04:16:55;19.60;99.90
7046;DHT22;3564;53.326;10.356;2023-07-13T04:19:21;19.60;99.90
7046;DHT22;3564;53.326;10.356;2023-07-13T04:21:47;19.60;99.90
7046;DHT22;3564;53.326;10.356;2023-07-13T04:24:12;19.70;99.90
7046;DHT22;3564;53.326;10.356;2023-07-13T04:26:38;19.70;99.90
7046;DHT22;3564;53.326;10.356;2023-07-13T04:29:05;19.70;99.90
7046;DHT22;3564;53.326;10.356;2023-07-13T04:31:32;19.80;99.90
7046;DHT22;3564;53.326;10.356;2023-07-13T04:33:58;19.80;99.90
7046;DHT22;3564;53.326;10.356;2023-07-13T04:36:24;19.80;99.90
7046;DHT22;3564;53.326;10.356;2023-07-13T04:38:53;19.80;99.90
7046;DHT22;3564;53.326;10.356;2023-07-13T04:41:19;19.70;99.90
7046;DHT22;3564;53.326;10.356;2023-07-13T04:43:45;19.80;99.90
7046;DHT22;3564;53.326;10.356;2023-07-13T04:46:14;19.70;99.90
7046;DHT22;3564;53.326;10.356;2023-07-13T04:48:41;19.60;99.90
7046;DHT22;3564;53.326;10.356;2023-07-13T04:51:07;19.70;99.90
7046;DHT22;3564;53.326;10.356;2023-07-13T04:53:33;19.70;99.90
7046;DHT22;3564;53.326;10.356;2023-07-13T04:56:00;19.70;99.90
7046;DHT22;3564;53.326;10.356;2023-07-13T04:58:27;19.70;99.90
7046;DHT22;3564;53.326;10.356;2023-07-13T05:00:53;19.70;99.90
7046;DHT22;3564;53.326;10.356;2023-07-13T05:03:19;19.70;99.90
7046;DHT22;3564;53.326;10.356;2023-07-13T05:05:55;19.70;99.90
7046;DHT22;3564;53.326;10.356;2023-07-13T05:08:21;19.80;99.90
7046;DHT22;3564;53.326;10.356;2023-07-13T05:10:47;19.80;99.90
7046;DHT22;3564;53.326;10.356;2023-07-13T05:13:13;19.80;99.90
7046;DHT22;3564;53.326;10.356;2023-07-13T05:15:38;19.90;99.90
7046;DHT22;3564;53.326;10.356;2023-07-13T05:18:04;19.90;99.90
7046;DHT22;3564;53.326;10.356;2023-07-13T05:20:29;19.90;99.90
7046;DHT22;3564;53.326;10.356;2023-07-13T05:22:55;20.00;99.90
7046;DHT22;3564;53.326;10.356;2023-07-13T05:25:21;20.00;99.90
7046;DHT22;3564;53.326;10.356;2023-07-13T05:27:47;20.00;99.90
7046;DHT22;3564;53.326;10.356;2023-07-13T05:30:13;20.10;99.90
7046;DHT22;3564;53.326;10.356;2023-07-13T05:32:38;20.00;99.90
7046;DHT22;3564;53.326;10.356;2023-07-13T05:35:04;20.00;99.90
7046;DHT22;3564;53.326;10.356;2023-07-13T05:37:30;19.90;99.90
7046;DHT22;3564;53.326;10.356;2023-07-13T05:39:56;19.90;99.90
7046;DHT22;3564;53.326;10.356;2023-07-13T05:42:21;19.90;99.90
7046;DHT22;3564;53.326;10.356;2023-07-13T05:44:47;19.90;99.90
7046;DHT22;3564;53.326;10.356;2023-07-13T05:47:12;19.90;99.90
7046;DHT22;3564;53.326;10.356;2023-07-13T05:49:40;19.90;99.90
7046;DHT22;3564;53.326;10.356;2023-07-13T05:52:09;20.00;99.90
7046;DHT22;3564;53.326;10.356;2023-07-13T05:54:35;19.90;99.90
7046;DHT22;3564;53.326;10.356;2023-07-13T05:57:01;20.10;99.90
7046;DHT22;3564;53.326;10.356;2023-07-13T05:59:26;20.20;99.90
7046;DHT22;3564;53.326;10.356;2023-07-13T06:01:53;20.20;99.90
7046;DHT22;3564;53.326;10.356;2023-07-13T06:04:19;20.20;99.90
7046;DHT22;3564;53.326;10.356;2023-07-13T06:06:45;20.30;99.90
7046;DHT22;3564;53.326;10.356;2023-07-13T06:09:11;20.30;99.90
7046;DHT22;3564;53.326;10.356;2023-07-13T06:11:36;20.30;99.90
7046;DHT22;3564;53.326;10.356;2023-07-13T06:14:02;20.40;99.90
7046;DHT22;3564;53.326;10.356;2023-07-13T06:16:29;20.50;99.90
7046;DHT22;3564;53.326;10.356;2023-07-13T06:18:54;20.60;99.90
7046;DHT22;3564;53.326;10.356;2023-07-13T06:21:22;20.60;99.90
7046;DHT22;3564;53.326;10.356;2023-07-13T06:23:49;20.70;99.90
7046;DHT22;3564;53.326;10.356;2023-07-13T06:26:16;20.70;99.90
7046;DHT22;3564;53.326;10.356;2023-07-13T06:28:43;20.80;99.90
7046;DHT22;3564;53.326;10.356;2023-07-13T06:31:10;20.90;99.90
7046;DHT22;3564;53.326;10.356;2023-07-13T06:33:37;21.00;99.90
7046;DHT22;3564;53.326;10.356;2023-07-13T06:36:04;20.90;99.90
7046;DHT22;3564;53.326;10.356;2023-07-13T06:38:30;21.00;99.90
7046;DHT22;3564;53.326;10.356;2023-07-13T06:40:56;21.00;99.90
7046;DHT22;3564;53.326;10.356;2023-07-13T06:43:22;21.10;99.90
7046;DHT22;3564;53.326;10.356;2023-07-13T06:45:49;21.10;99.90
7046;DHT22;3564;53.326;10.356;2023-07-13T06:48:22;21.10;99.90
7046;DHT22;3564;53.326;10.356;2023-07-13T06:50:49;21.10;99.90
7046;DHT22;3564;53.326;10.356;2023-07-13T06:53:15;21.10;99.90
7046;DHT22;3564;53.326;10.356;2023-07-13T06:55:43;21.20;99.90
7046;DHT22;3564;53.326;10.356;2023-07-13T06:58:09;21.30;99.90
7046;DHT22;3564;53.326;10.356;2023-07-13T07:00:35;21.20;99.90
7046;DHT22;3564;53.326;10.356;2023-07-13T07:03:00;21.30;99.90
7046;DHT22;3564;53.326;10.356;2023-07-13T07:05:26;21.30;99.90
7046;DHT22;3564;53.326;10.356;2023-07-13T07:07:54;21.40;99.90
7046;DHT22;3564;53.326;10.356;2023-07-13T07:10:20;21.40;99.90
7046;DHT22;3564;53.326;10.356;2023-07-13T07:12:46;21.50;99.90
7046;DHT22;3564;53.326;10.356;2023-07-13T07:15:12;21.60;99.90
7046;DHT22;3564;53.326;10.356;2023-07-13T07:17:38;21.50;99.90
7046;DHT22;3564;53.326;10.356;2023-07-13T07:20:04;21.60;99.90
7046;DHT22;3564;53.326;10.356;2023-07-13T07:22:30;21.70;99.90
7046;DHT22;3564;53.326;10.356;2023-07-13T07:24:57;21.80;99.90
7046;DHT22;3564;53.326;10.356;2023-07-13T07:27:23;21.90;99.90
7046;DHT22;3564;53.326;10.356;2023-07-13T07:29:48;21.90;99.90
7046;DHT22;3564;53.326;10.356;2023-07-13T07:32:14;21.90;99.90
7046;DHT22;3564;53.326;10.356;2023-07-13T07:34:40;21.90;99.90
7046;DHT22;3564;53.326;10.356;2023-07-13T07:37:06;22.00;99.90
7046;DHT22;3564;53.326;10.356;2023-07-13T07:39:32;22.00;99.90
7046;DHT22;3564;53.326;10.356;2023-07-13T07:41:58;22.00;99.90
7046;DHT22;3564;53.326;10.356;2023-07-13T07:44:23;22.20;99.90
7046;DHT22;3564;53.326;10.356;2023-07-13T07:46:49;22.30;99.90
7046;DHT22;3564;53.326;10.356;2023-07-13T07:49:15;22.40;99.90
7046;DHT22;3564;53.326;10.356;2023-07-13T07:51:40;22.50;99.90
7046;DHT22;3564;53.326;10.356;2023-07-13T07:54:06;22.70;99.90
7046;DHT22;3564;53.326;10.356;2023-07-13T07:56:32;22.70;99.90
7046;DHT22;3564;53.326;10.356;2023-07-13T07:58:58;22.60;99.90
7046;DHT22;3564;53.326;10.356;2023-07-13T08:01:24;22.60;99.90
7046;DHT22;3564;53.326;10.356;2023-07-13T08:03:50;22.60;99.90
7046;DHT22;3564;53.326;10.356;2023-07-13T08:06:15;22.60;99.90
7046;DHT22;3564;53.326;10.356;2023-07-13T08:08:41;22.60;99.90
7046;DHT22;3564;53.326;10.356;2023-07-13T08:11:08;22.70;99.90
7046;DHT22;3564;53.326;10.356;2023-07-13T08:13:34;22.70;99.90
7046;DHT22;3564;53.326;10.356;2023-07-13T08:16:00;22.50;99.80
7046;DHT22;3564;53.326;10.356;2023-07-13T08:18:26;22.50;99.90
7046;DHT22;3564;53.326;10.356;2023-07-13T08:20:53;22.50;99.90
7046;DHT22;3564;53.326;10.356;2023-07-13T08:23:22;22.60;99.90
7046;DHT22;3564;53.326;10.356;2023-07-13T08:25:52;22.50;99.90
7046;DHT22;3564;53.326;10.356;2023-07-13T08:28:20;22.50;99.90
7046;DHT22;3564;53.326;10.356;2023-07-13T08:30:46;22.50;99.90
7046;DHT22;3564;53.326;10.356;2023-07-13T08:33:15;22.60;99.90
7046;DHT22;3564;53.326;10.356;2023-07-13T08:35:41;22.50;99.90
7046;DHT22;3564;53.326;10.356;2023-07-13T08:38:07;22.60;99.90
7046;DHT22;3564;53.326;10.356;2023-07-13T08:40:34;22.60;99.50
7046;DHT22;3564;53.326;10.356;2023-07-13T08:43:00;22.60;99.30
7046;DHT22;3564;53.326;10.356;2023-07-13T08:48:26;22.60;99.70
7046;DHT22;3564;53.326;10.356;2023-07-13T08:50:57;22.60;99.20
7046;DHT22;3564;53.326;10.356;2023-07-13T08:53:30;22.70;99.40
7046;DHT22;3564;53.326;10.356;2023-07-13T08:55:59;22.70;99.40
7046;DHT22;3564;53.326;10.356;2023-07-13T08:58:26;22.70;98.80
7046;DHT22;3564;53.326;10.356;2023-07-13T09:01:40;22.70;99.10
7046;DHT22;3564;53.326;10.356;2023-07-13T09:04:20;22.70;98.70
7046;DHT22;3564;53.326;10.356;2023-07-13T09:15:24;23.00;98.60
7046;DHT22;3564;53.326;10.356;2023-07-13T09:17:51;22.90;98.30
7046;DHT22;3564;53.326;10.356;2023-07-13T09:22:46;23.00;98.50
7046;DHT22;3564;53.326;10.356;2023-07-13T09:25:33;23.10;98.30
7046;DHT22;3564;53.326;10.356;2023-07-13T09:28:11;23.30;98.20
7046;DHT22;3564;53.326;10.356;2023-07-13T09:30:46;23.40;97.60
7046;DHT22;3564;53.326;10.356;2023-07-13T09:33:13;23.40;97.10
7046;DHT22;3564;53.326;10.356;2023-07-13T09:35:39;23.40;96.30
7046;DHT22;3564;53.326;10.356;2023-07-13T09:38:13;23.40;96.40
7046;DHT22;3564;53.326;10.356;2023-07-13T09:43:27;23.40;96.70
7046;DHT22;3564;53.326;10.356;2023-07-13T09:45:56;23.40;96.80
7046;DHT22;3564;53.326;10.356;2023-07-13T09:48:21;23.40;96.50
7046;DHT22;3564;53.326;10.356;2023-07-13T09:50:47;23.40;96.70
7046;DHT22;3564;53.326;10.356;2023-07-13T09:53:15;23.50;97.30
7046;DHT22;3564;53.326;10.356;2023-07-13T09:55:43;23.70;97.20
7046;DHT22;3564;53.326;10.356;2023-07-13T09:58:18;23.80;97.30
7046;DHT22;3564;53.326;10.356;2023-07-13T10:01:02;23.90;96.30
7046;DHT22;3564;53.326;10.356;2023-07-13T10:03:35;24.00;95.50
7046;DHT22;3564;53.326;10.356;2023-07-13T10:08:38;24.20;95.80
7046;DHT22;3564;53.326;10.356;2023-07-13T10:11:18;24.30;95.80
7046;DHT22;3564;53.326;10.356;2023-07-13T10:13:58;24.40;95.50
7046;DHT22;3564;53.326;10.356;2023-07-13T10:16:26;24.40;95.70
7046;DHT22;3564;53.326;10.356;2023-07-13T10:21:52;24.20;94.90
7046;DHT22;3564;53.326;10.356;2023-07-13T10:24:24;24.10;94.10
7046;DHT22;3564;53.326;10.356;2023-07-13T10:29:25;24.00;94.50
7046;DHT22;3564;53.326;10.356;2023-07-13T10:31:52;24.00;95.10
7046;DHT22;3564;53.326;10.356;2023-07-13T10:34:18;24.00;95.00
7046;DHT22;3564;53.326;10.356;2023-07-13T10:36:46;24.00;94.70
7046;DHT22;3564;53.326;10.356;2023-07-13T10:39:19;23.90;94.50
7046;DHT22;3564;53.326;10.356;2023-07-13T10:41:47;23.70;94.40
7046;DHT22;3564;53.326;10.356;2023-07-13T10:44:36;23.70;95.20
7046;DHT22;3564;53.326;10.356;2023-07-13T10:47:06;23.90;94.50
7046;DHT22;3564;53.326;10.356;2023-07-13T10:49:33;24.00;94.10
7046;DHT22;3564;53.326;10.356;2023-07-13T10:52:00;24.10;93.30
7046;DHT22;3564;53.326;10.356;2023-07-13T10:54:32;24.10;93.30
7046;DHT22;3564;53.326;10.356;2023-07-13T10:57:18;24.10;93.20
7046;DHT22;3564;53.326;10.356;2023-07-13T11:00:34;24.30;93.90
7046;DHT22;3564;53.326;10.356;2023-07-13T11:02:35;24.40;93.10
7046;DHT22;3564;53.326;10.356;2023-07-13T11:05:20;24.50;93.10
7046;DHT22;3564;53.326;10.356;2023-07-13T11:10:49;24.50;92.00
7046;DHT22;3564;53.326;10.356;2023-07-13T11:16:43;24.40;92.60
7046;DHT22;3564;53.326;10.356;2023-07-13T11:27:44;24.40;93.00
7046;DHT22;3564;53.326;10.356;2023-07-13T11:30:24;24.50;91.90
7046;DHT22;3564;53.326;10.356;2023-07-13T11:35:34;24.50;91.50
7046;DHT22;3564;53.326;10.356;2023-07-13T11:38:02;24.40;91.50
7046;DHT22;3564;53.326;10.356;2023-07-13T11:40:29;24.50;92.50
7046;DHT22;3564;53.326;10.356;2023-07-13T11:43:00;24.60;92.50
7046;DHT22;3564;53.326;10.356;2023-07-13T11:45:26;24.70;92.60
7046;DHT22;3564;53.326;10.356;2023-07-13T11:47:54;24.70;92.40
7046;DHT22;3564;53.326;10.356;2023-07-13T11:50:23;24.70;92.70
7046;DHT22;3564;53.326;10.356;2023-07-13T11:52:51;24.70;91.70
7046;DHT22;3564;53.326;10.356;2023-07-13T11:55:20;24.80;91.70
7046;DHT22;3564;53.326;10.356;2023-07-13T11:58:00;24.80;91.50
7046;DHT22;3564;53.326;10.356;2023-07-13T12:00:29;24.90;91.80
7046;DHT22;3564;53.326;10.356;2023-07-13T12:03:00;25.00;91.50
7046;DHT22;3564;53.326;10.356;2023-07-13T12:05:27;25.10;91.50
7046;DHT22;3564;53.326;10.356;2023-07-13T12:07:54;25.10;91.50
7046;DHT22;3564;53.326;10.356;2023-07-13T12:10:26;25.20;91.70
7046;DHT22;3564;53.326;10.356;2023-07-13T12:12:58;25.20;91.80
7046;DHT22;3564;53.326;10.356;2023-07-13T12:15:40;25.30;90.60
7046;DHT22;3564;53.326;10.356;2023-07-13T12:18:19;25.30;90.90
7046;DHT22;3564;53.326;10.356;2023-07-13T12:20:47;25.40;90.00
7046;DHT22;3564;53.326;10.356;2023-07-13T12:23:31;25.40;90.50
7046;DHT22;3564;53.326;10.356;2023-07-13T12:25:58;25.60;90.20
7046;DHT22;3564;53.326;10.356;2023-07-13T12:28:32;25.60;90.70
7046;DHT22;3564;53.326;10.356;2023-07-13T12:30:59;25.60;89.20
7046;DHT22;3564;53.326;10.356;2023-07-13T12:33:28;25.60;89.10
7046;DHT22;3564;53.326;10.356;2023-07-13T12:35:54;25.50;88.70
7046;DHT22;3564;53.326;10.356;2023-07-13T12:38:21;25.30;88.60
7046;DHT22;3564;53.326;10.356;2023-07-13T12:40:51;25.30;88.70
7046;DHT22;3564;53.326;10.356;2023-07-13T12:43:17;25.30;89.60
7046;DHT22;3564;53.326;10.356;2023-07-13T12:46:15;25.40;90.10
7046;DHT22;3564;53.326;10.356;2023-07-13T12:48:42;25.40;89.90
7046;DHT22;3564;53.326;10.356;2023-07-13T12:51:13;25.50;90.80
7046;DHT22;3564;53.326;10.356;2023-07-13T12:53:47;25.50;90.30
7046;DHT22;3564;53.326;10.356;2023-07-13T12:56:21;25.40;88.40
7046;DHT22;3564;53.326;10.356;2023-07-13T12:58:48;25.10;90.80
7046;DHT22;3564;53.326;10.356;2023-07-13T13:01:21;24.40;96.40
7046;DHT22;3564;53.326;10.356;2023-07-13T13:03:50;23.40;96.70
7046;DHT22;3564;53.326;10.356;2023-07-13T13:06:26;22.70;99.00
7046;DHT22;3564;53.326;10.356;2023-07-13T13:08:54;22.10;99.70
7046;DHT22;3564;53.326;10.356;2023-07-13T13:11:21;21.70;99.90
7046;DHT22;3564;53.326;10.356;2023-07-13T13:13:49;21.60;99.90
7046;DHT22;3564;53.326;10.356;2023-07-13T13:18:55;21.30;99.90
7046;DHT22;3564;53.326;10.356;2023-07-13T13:21:25;21.30;99.90
7046;DHT22;3564;53.326;10.356;2023-07-13T13:23:51;21.30;99.90
7046;DHT22;3564;53.326;10.356;2023-07-13T13:26:23;21.30;99.90
7046;DHT22;3564;53.326;10.356;2023-07-13T13:28:49;21.30;99.90
7046;DHT22;3564;53.326;10.356;2023-07-13T13:31:14;21.30;99.90
7046;DHT22;3564;53.326;10.356;2023-07-13T13:33:42;21.30;99.90
7046;DHT22;3564;53.326;10.356;2023-07-13T13:36:15;21.40;99.90
7046;DHT22;3564;53.326;10.356;2023-07-13T13:38:42;21.50;99.90
7046;DHT22;3564;53.326;10.356;2023-07-13T13:41:11;21.60;99.90
7046;DHT22;3564;53.326;10.356;2023-07-13T13:43:37;21.80;99.90
7046;DHT22;3564;53.326;10.356;2023-07-13T13:46:13;21.90;99.90
7046;DHT22;3564;53.326;10.356;2023-07-13T13:48:41;22.00;99.90
7046;DHT22;3564;53.326;10.356;2023-07-13T13:51:21;22.30;99.90
7046;DHT22;3564;53.326;10.356;2023-07-13T13:53:48;22.40;99.90
7046;DHT22;3564;53.326;10.356;2023-07-13T13:56:15;22.50;99.90
7046;DHT22;3564;53.326;10.356;2023-07-13T13:58:41;22.50;99.90
7046;DHT22;3564;53.326;10.356;2023-07-13T14:01:20;22.60;99.90
7046;DHT22;3564;53.326;10.356;2023-07-13T14:03:47;22.60;99.90
7046;DHT22;3564;53.326;10.356;2023-07-13T14:06:15;22.70;99.90
7046;DHT22;3564;53.326;10.356;2023-07-13T14:08:41;22.70;99.90
7046;DHT22;3564;53.326;10.356;2023-07-13T14:11:11;22.80;99.90
7046;DHT22;3564;53.326;10.356;2023-07-13T14:13:41;22.80;99.90
7046;DHT22;3564;53.326;10.356;2023-07-13T14:16:18;22.80;99.90
7046;DHT22;3564;53.326;10.356;2023-07-13T14:18:45;22.80;99.90
7046;DHT22;3564;53.326;10.356;2023-07-13T14:21:15;22.80;99.90
7046;DHT22;3564;53.326;10.356;2023-07-13T14:23:42;22.80;99.90
7046;DHT22;3564;53.326;10.356;2023-07-13T14:26:15;22.80;99.90
7046;DHT22;3564;53.326;10.356;2023-07-13T14:28:45;22.70;99.90
7046;DHT22;3564;53.326;10.356;2023-07-13T14:31:12;22.50;99.90
7046;DHT22;3564;53.326;10.356;2023-07-13T14:33:38;22.50;99.90
7046;DHT22;3564;53.326;10.356;2023-07-13T14:36:23;22.60;99.90
7046;DHT22;3564;53.326;10.356;2023-07-13T14:38:49;22.40;99.90
7046;DHT22;3564;53.326;10.356;2023-07-13T14:41:15;22.20;99.90
7046;DHT22;3564;53.326;10.356;2023-07-13T14:43:41;22.30;99.90
7046;DHT22;3564;53.326;10.356;2023-07-13T14:46:16;22.30;99.90
7046;DHT22;3564;53.326;10.356;2023-07-13T14:48:43;22.40;99.90
7046;DHT22;3564;53.326;10.356;2023-07-13T14:51:10;22.40;99.90
7046;DHT22;3564;53.326;10.356;2023-07-13T14:53:35;22.30;99.90
7046;DHT22;3564;53.326;10.356;2023-07-13T14:56:12;22.20;99.90
7046;DHT22;3564;53.326;10.356;2023-07-13T14:58:40;22.20;99.90
7046;DHT22;3564;53.326;10.356;2023-07-13T15:01:12;22.20;99.90
7046;DHT22;3564;53.326;10.356;2023-07-13T15:03:43;22.30;99.90
7046;DHT22;3564;53.326;10.356;2023-07-13T15:06:12;22.30;99.90
7046;DHT22;3564;53.326;10.356;2023-07-13T15:08:39;22.30;99.90
7046;DHT22;3564;53.326;10.356;2023-07-13T15:11:07;22.40;99.90
7046;DHT22;3564;53.326;10.356;2023-07-13T15:13:33;22.50;99.90
7046;DHT22;3564;53.326;10.356;2023-07-13T15:16:00;22.50;99.90
7046;DHT22;3564;53.326;10.356;2023-07-13T15:18:26;22.70;99.90
7046;DHT22;3564;53.326;10.356;2023-07-13T15:20:54;22.80;99.90
7046;DHT22;3564;53.326;10.356;2023-07-13T15:23:22;22.90;99.90
7046;DHT22;3564;53.326;10.356;2023-07-13T15:25:51;22.80;99.90
7046;DHT22;3564;53.326;10.356;2023-07-13T15:28:17;22.90;99.90
7046;DHT22;3564;53.326;10.356;2023-07-13T15:30:47;22.90;99.90
7046;DHT22;3564;53.326;10.356;2023-07-13T15:33:15;22.80;99.90
7046;DHT22;3564;53.326;10.356;2023-07-13T15:35:42;22.70;99.90
7046;DHT22;3564;53.326;10.356;2023-07-13T15:38:19;22.80;99.90
7046;DHT22;3564;53.326;10.356;2023-07-13T15:40:47;22.90;99.90
7046;DHT22;3564;53.326;10.356;2023-07-13T15:43:14;23.00;99.90
7046;DHT22;3564;53.326;10.356;2023-07-13T15:45:41;23.10;99.90
7046;DHT22;3564;53.326;10.356;2023-07-13T15:48:17;23.30;99.90
7046;DHT22;3564;53.326;10.356;2023-07-13T15:50:45;23.80;99.90
7046;DHT22;3564;53.326;10.356;2023-07-13T15:53:13;24.30;99.90
7046;DHT22;3564;53.326;10.356;2023-07-13T15:55:40;24.90;99.90
7046;DHT22;3564;53.326;10.356;2023-07-13T15:58:11;25.40;99.30
7046;DHT22;3564;53.326;10.356;2023-07-13T16:00:37;25.80;98.40
7046;DHT22;3564;53.326;10.356;2023-07-13T16:03:03;26.00;97.30
7046;DHT22;3564;53.326;10.356;2023-07-13T16:05:28;26.20;96.70
7046;DHT22;3564;53.326;10.356;2023-07-13T16:07:54;26.40;96.50
7046;DHT22;3564;53.326;10.356;2023-07-13T16:10:30;26.60;95.80
7046;DHT22;3564;53.326;10.356;2023-07-13T16:12:57;26.80;95.30
7046;DHT22;3564;53.326;10.356;2023-07-13T16:15:23;26.90;94.40
7046;DHT22;3564;53.326;10.356;2023-07-13T16:17:49;26.90;94.50
7046;DHT22;3564;53.326;10.356;2023-07-13T16:20:17;27.10;94.20
7046;DHT22;3564;53.326;10.356;2023-07-13T16:22:48;27.10;93.20
7046;DHT22;3564;53.326;10.356;2023-07-13T16:25:19;27.00;93.70
7046;DHT22;3564;53.326;10.356;2023-07-13T16:27:46;26.50;93.40
7046;DHT22;3564;53.326;10.356;2023-07-13T16:30:24;26.10;93.80
7046;DHT22;3564;53.326;10.356;2023-07-13T16:32:58;25.90;94.60
7046;DHT22;3564;53.326;10.356;2023-07-13T16:35:38;25.70;94.70
7046;DHT22;3564;53.326;10.356;2023-07-13T16:38:17;25.40;95.20
7046;DHT22;3564;53.326;10.356;2023-07-13T16:40:43;25.10;95.00